sensor_id;sensor_type;location;lat;lon;timestamp;pressure;altitude;pressure_sealevel;temperature;humidity
12969;BME280;6549;53.128;8.182;2023-11-19T00:02:04;100410.75;;;7.51;100.00
12969;BME280;6549;53.128;8.182;2023-11-19T00:05:05;100391.66;;;7.54;100.00
12969;BME280;6549;53.128;8.182;2023-11-19T00:08:09;100378.81;;;7.58;100.00
12969;BME280;6549;53.128;8.182;2023-11-19T00:11:09;100387.84;;;7.62;100.00
12969;BME280;6549;53.128;8.182;2023-11-19T00:14:09;100381.63;;;7.65;100.00
12969;BME280;6549;53.128;8.182;2023-11-19T00:17:10;100381.69;;;7.73;100.00
12969;BME280;6549;53.128;8.182;2023-11-19T00:20:11;100375.91;;;7.78;100.00
12969;BME280;6549;53.128;8.182;2023-11-19T00:23:11;100379.81;;;7.80;100.00
12969;BME280;6549;53.128;8.182;2023-11-19T00:26:12;100383.00;;;7.86;100.00
12969;BME280;6549;53.128;8.182;2023-11-19T00:29:13;100371.31;;;7.89;100.00
12969;BME280;6549;53.128;8.182;2023-11-19T00:32:14;100375.66;;;7.97;100.00
12969;BME280;6549;53.128;8.182;2023-11-19T00:35:15;100359.69;;;7.99;100.00
12969;BME280;6549;53.128;8.182;2023-11-19T00:38:15;100352.66;;;8.01;100.00
12969;BME280;6549;53.128;8.182;2023-11-19T00:41:16;100349.56;;;8.06;100.00
12969;BME280;6549;53.128;8.182;2023-11-19T00:44:19;100351.19;;;8.14;100.00
12969;BME280;6549;53.128;8.182;2023-11-19T00:47:19;100335.22;;;8.20;100.00
12969;BME280;6549;53.128;8.182;2023-11-19T00:50:20;100323.94;;;8.25;100.00
12969;BME280;6549;53.128;8.182;2023-11-19T00:53:20;100320.50;;;8.32;100.00
12969;BME280;6549;53.128;8.182;2023-11-19T00:56:21;100315.03;;;8.35;100.00
12969;BME280;6549;53.128;8.182;2023-11-19T00:59:21;100303.75;;;8.40;100.00
12969;BME280;6549;53.128;8.182;2023-11-19T01:02:21;100310.00;;;8.44;100.00
12969;BME280;6549;53.128;8.182;2023-11-19T01:05:22;100315.50;;;8.48;100.00
12969;BME280;6549;53.128;8.182;2023-11-19T01:08:22;100308.47;;;8.50;100.00
12969;BME280;6549;53.128;8.182;2023-11-19T01:11:25;100306.53;;;8.54;100.00
12969;BME280;6549;53.128;8.182;2023-11-19T01:14:25;100308.53;;;8.57;100.00
12969;BME280;6549;53.128;8.182;2023-11-19T01:17:26;100301.88;;;8.58;100.00
12969;BME280;6549;53.128;8.182;2023-11-19T01:20:26;100289.75;;;8.63;100.00
12969;BME280;6549;53.128;8.182;2023-11-19T01:23:26;100289.00;;;8.66;100.00
12969;BME280;6549;53.128;8.182;2023-11-19T01:26:27;100284.34;;;8.74;100.00
12969;BME280;6549;53.128;8.182;2023-11-19T01:29:27;100287.09;;;8.81;100.00
12969;BME280;6549;53.128;8.182;2023-11-19T01:32:27;100267.19;;;8.84;100.00
12969;BME280;6549;53.128;8.182;2023-11-19T01:35:28;100267.97;;;8.88;100.00
12969;BME280;6549;53.128;8.182;2023-11-19T01:38:28;100275.03;;;8.92;100.00
12969;BME280;6549;53.128;8.182;2023-11-19T01:41:28;100263.31;;;8.99;100.00
12969;BME280;6549;53.128;8.182;2023-11-19T01:44:29;100258.25;;;9.05;100.00
12969;BME280;6549;53.128;8.182;2023-11-19T01:47:30;100256.31;;;9.09;100.00
12969;BME280;6549;53.128;8.182;2023-11-19T01:50:31;100261.00;;;9.12;100.00
12969;BME280;6549;53.128;8.182;2023-11-19T01:53:34;100251.63;;;9.16;100.00
12969;BME280;6549;53.128;8.182;2023-11-19T01:56:38;100246.13;;;9.16;100.00
12969;BME280;6549;53.128;8.182;2023-11-19T01:59:40;100247.72;;;9.17;100.00
12969;BME280;6549;53.128;8.182;2023-11-19T02:02:43;100243.00;;;9.21;100.00
12969;BME280;6549;53.128;8.182;2023-11-19T02:05:44;100229.72;;;9.27;100.00
12969;BME280;6549;53.128;8.182;2023-11-19T02:08:45;100239.91;;;9.30;100.00
12969;BME280;6549;53.128;8.182;2023-11-19T02:11:46;100244.22;;;9.34;100.00
12969;BME280;6549;53.128;8.182;2023-11-19T02:14:49;100238.34;;;9.39;100.00
12969;BME280;6549;53.128;8.182;2023-11-19T02:17:50;100231.69;;;9.40;100.00
12969;BME280;6549;53.128;8.182;2023-11-19T02:20:51;100234.44;;;9.44;100.00
12969;BME280;6549;53.128;8.182;2023-11-19T02:23:52;100234.84;;;9.46;100.00
12969;BME280;6549;53.128;8.182;2023-11-19T02:27:06;100229.75;;;9.52;100.00
12969;BME280;6549;53.128;8.182;2023-11-19T02:30:08;100219.56;;;9.48;100.00
12969;BME280;6549;53.128;8.182;2023-11-19T02:33:08;100218.38;;;9.53;100.00
12969;BME280;6549;53.128;8.182;2023-11-19T02:36:09;100218.00;;;9.55;100.00
12969;BME280;6549;53.128;8.182;2023-11-19T02:39:09;100216.41;;;9.61;100.00
12969;BME280;6549;53.128;8.182;2023-11-19T02:42:12;100205.06;;;9.69;100.00
12969;BME280;6549;53.128;8.182;2023-11-19T02:45:14;100194.47;;;9.75;100.00
12969;BME280;6549;53.128;8.182;2023-11-19T02:48:14;100196.44;;;9.74;100.00
12969;BME280;6549;53.128;8.182;2023-11-19T02:51:16;100187.81;;;9.79;100.00
12969;BME280;6549;53.128;8.182;2023-11-19T02:54:16;100180.34;;;9.83;100.00
12969;BME280;6549;53.128;8.182;2023-11-19T02:57:16;100178.38;;;9.87;100.00
12969;BME280;6549;53.128;8.182;2023-11-19T03:00:20;100178.41;;;9.91;100.00
12969;BME280;6549;53.128;8.182;2023-11-19T03:03:25;100177.22;;;9.88;100.00
12969;BME280;6549;53.128;8.182;2023-11-19T03:06:30;100182.69;;;9.92;100.00
12969;BME280;6549;53.128;8.182;2023-11-19T03:09:32;100185.03;;;9.97;100.00
12969;BME280;6549;53.128;8.182;2023-11-19T03:12:32;100182.28;;;9.97;100.00
12969;BME280;6549;53.128;8.182;2023-11-19T03:15:32;100187.41;;;9.99;100.00
12969;BME280;6549;53.128;8.182;2023-11-19T03:18:32;100189.34;;;10.05;100.00
12969;BME280;6549;53.128;8.182;2023-11-19T03:21:33;100187.00;;;10.07;100.00
12969;BME280;6549;53.128;8.182;2023-11-19T03:24:34;100184.63;;;10.06;100.00
12969;BME280;6549;53.128;8.182;2023-11-19T03:27:35;100177.97;;;10.10;100.00
12969;BME280;6549;53.128;8.182;2023-11-19T03:30:36;100168.53;;;10.11;100.00
12969;BME280;6549;53.128;8.182;2023-11-19T03:33:36;100170.13;;;10.12;100.00
12969;BME280;6549;53.128;8.182;2023-11-19T03:36:37;100174.84;;;10.15;100.00
12969;BME280;6549;53.128;8.182;2023-11-19T03:39:37;100167.00;;;10.17;100.00
12969;BME280;6549;53.128;8.182;2023-11-19T03:42:38;100168.53;;;10.18;100.00
12969;BME280;6549;53.128;8.182;2023-11-19T03:45:39;100163.06;;;10.18;100.00
12969;BME280;6549;53.128;8.182;2023-11-19T03:48:40;100150.91;;;10.19;100.00
12969;BME280;6549;53.128;8.182;2023-11-19T03:51:40;100160.31;;;10.25;100.00
12969;BME280;6549;53.128;8.182;2023-11-19T03:54:41;100164.63;;;10.26;100.00
12969;BME280;6549;53.128;8.182;2023-11-19T03:57:41;100157.53;;;10.29;100.00
12969;BME280;6549;53.128;8.182;2023-11-19T04:00:41;100158.72;;;10.35;100.00
12969;BME280;6549;53.128;8.182;2023-11-19T04:03:41;100163.00;;;10.40;100.00
12969;BME280;6549;53.128;8.182;2023-11-19T04:06:42;100157.88;;;10.42;100.00
12969;BME280;6549;53.128;8.182;2023-11-19T04:09:42;100161.78;;;10.51;100.00
12969;BME280;6549;53.128;8.182;2023-11-19T04:12:43;100160.59;;;10.52;100.00
12969;BME280;6549;53.128;8.182;2023-11-19T04:15:43;100161.38;;;10.53;100.00
12969;BME280;6549;53.128;8.182;2023-11-19T04:18:43;100157.81;;;10.56;100.00
12969;BME280;6549;53.128;8.182;2023-11-19T04:21:43;100162.16;;;10.57;100.00
12969;BME280;6549;53.128;8.182;2023-11-19T04:24:44;100149.19;;;10.57;100.00
12969;BME280;6549;53.128;8.182;2023-11-19T04:27:45;100146.44;;;10.61;100.00
12969;BME280;6549;53.128;8.182;2023-11-19T04:30:47;100146.78;;;10.63;100.00
12969;BME280;6549;53.128;8.182;2023-11-19T04:33:48;100141.28;;;10.63;100.00
12969;BME280;6549;53.128;8.182;2023-11-19T04:36:48;100143.69;;;10.61;100.00
12969;BME280;6549;53.128;8.182;2023-11-19T04:39:49;100133.88;;;10.60;100.00
12969;BME280;6549;53.128;8.182;2023-11-19T04:42:49;100130.72;;;10.61;100.00
12969;BME280;6549;53.128;8.182;2023-11-19T04:45:49;100125.59;;;10.63;100.00
12969;BME280;6549;53.128;8.182;2023-11-19T04:48:50;100133.84;;;10.63;100.00
12969;BME280;6549;53.128;8.182;2023-11-19T04:51:50;100133.44;;;10.65;100.00
12969;BME280;6549;53.128;8.182;2023-11-19T04:54:51;100137.38;;;10.64;100.00
12969;BME280;6549;53.128;8.182;2023-11-19T04:57:54;100129.13;;;10.64;100.00
12969;BME280;6549;53.128;8.182;2023-11-19T05:00:54;100126.78;;;10.66;100.00
12969;BME280;6549;53.128;8.182;2023-11-19T05:03:56;100125.16;;;10.72;100.00
12969;BME280;6549;53.128;8.182;2023-11-19T05:06:59;100133.03;;;10.70;100.00
12969;BME280;6549;53.128;8.182;2023-11-19T05:09:59;100121.66;;;10.68;100.00
12969;BME280;6549;53.128;8.182;2023-11-19T05:13:00;100122.03;;;10.70;100.00
12969;BME280;6549;53.128;8.182;2023-11-19T05:16:00;100121.22;;;10.73;100.00
12969;BME280;6549;53.128;8.182;2023-11-19T05:19:00;100123.97;;;10.73;100.00
12969;BME280;6549;53.128;8.182;2023-11-19T05:22:01;100127.91;;;10.72;100.00
12969;BME280;6549;53.128;8.182;2023-11-19T05:25:01;100131.03;;;10.74;100.00
12969;BME280;6549;53.128;8.182;2023-11-19T05:28:02;100129.06;;;10.78;100.00
12969;BME280;6549;53.128;8.182;2023-11-19T05:31:02;100132.16;;;10.80;100.00
12969;BME280;6549;53.128;8.182;2023-11-19T05:34:03;100142.38;;;10.83;100.00
12969;BME280;6549;53.128;8.182;2023-11-19T05:37:03;100129.81;;;10.82;100.00
12969;BME280;6549;53.128;8.182;2023-11-19T05:40:06;100139.22;;;10.85;100.00
12969;BME280;6549;53.128;8.182;2023-11-19T05:43:14;100141.19;;;10.84;100.00
12969;BME280;6549;53.128;8.182;2023-11-19T05:46:16;100139.59;;;10.87;100.00
12969;BME280;6549;53.128;8.182;2023-11-19T05:49:17;100134.50;;;10.85;100.00
12969;BME280;6549;53.128;8.182;2023-11-19T05:52:17;100144.72;;;10.88;100.00
12969;BME280;6549;53.128;8.182;2023-11-19T05:55:17;100149.44;;;10.88;100.00
12969;BME280;6549;53.128;8.182;2023-11-19T05:58:18;100153.75;;;10.85;100.00
12969;BME280;6549;53.128;8.182;2023-11-19T06:01:18;100149.44;;;10.88;100.00
12969;BME280;6549;53.128;8.182;2023-11-19T06:04:18;100172.19;;;10.88;100.00
12969;BME280;6549;53.128;8.182;2023-11-19T06:07:19;100162.00;;;10.89;100.00
12969;BME280;6549;53.128;8.182;2023-11-19T06:10:20;100162.00;;;10.89;100.00
12969;BME280;6549;53.128;8.182;2023-11-19T06:13:20;100162.00;;;10.89;100.00
12969;BME280;6549;53.128;8.182;2023-11-19T06:16:22;100158.06;;;10.86;100.00
12969;BME280;6549;53.128;8.182;2023-11-19T06:19:23;100165.13;;;10.87;100.00
12969;BME280;6549;53.128;8.182;2023-11-19T06:22:25;100165.13;;;10.87;100.00
12969;BME280;6549;53.128;8.182;2023-11-19T06:25:25;100165.91;;;10.88;100.00
12969;BME280;6549;53.128;8.182;2023-11-19T06:28:26;100155.72;;;10.88;100.00
12969;BME280;6549;53.128;8.182;2023-11-19T06:31:26;100151.78;;;10.86;100.00
12969;BME280;6549;53.128;8.182;2023-11-19T06:34:27;100156.50;;;10.85;100.00
12969;BME280;6549;53.128;8.182;2023-11-19T06:37:27;100162.00;;;10.85;100.00
12969;BME280;6549;53.128;8.182;2023-11-19T06:40:27;100169.44;;;10.88;100.00
12969;BME280;6549;53.128;8.182;2023-11-19T06:43:27;100168.25;;;10.89;100.00
12969;BME280;6549;53.128;8.182;2023-11-19T06:46:28;100175.31;;;10.90;100.00
12969;BME280;6549;53.128;8.182;2023-11-19T06:49:28;100169.03;;;10.90;100.00
12969;BME280;6549;53.128;8.182;2023-11-19T06:52:29;100172.19;;;10.88;100.00
12969;BME280;6549;53.128;8.182;2023-11-19T06:55:30;100169.06;;;10.86;100.00
12969;BME280;6549;53.128;8.182;2023-11-19T06:58:35;100174.94;;;10.88;100.00
12969;BME280;6549;53.128;8.182;2023-11-19T07:01:36;100171.03;;;10.86;100.00
12969;BME280;6549;53.128;8.182;2023-11-19T07:04:37;100171.44;;;10.84;100.00
12969;BME280;6549;53.128;8.182;2023-11-19T07:07:37;100176.16;;;10.84;100.00
12969;BME280;6549;53.128;8.182;2023-11-19T07:10:37;100166.69;;;10.85;100.00
12969;BME280;6549;53.128;8.182;2023-11-19T07:13:38;100176.94;;;10.84;100.00
12969;BME280;6549;53.128;8.182;2023-11-19T07:16:38;100172.19;;;10.85;100.00
12969;BME280;6549;53.128;8.182;2023-11-19T07:19:39;100183.59;;;10.83;100.00
12969;BME280;6549;53.128;8.182;2023-11-19T07:22:39;100184.75;;;10.86;100.00
12969;BME280;6549;53.128;8.182;2023-11-19T07:25:39;100178.09;;;10.87;100.00
12969;BME280;6549;53.128;8.182;2023-11-19T07:28:40;100186.72;;;10.85;100.00
12969;BME280;6549;53.128;8.182;2023-11-19T07:31:40;100185.53;;;10.86;100.00
12969;BME280;6549;53.128;8.182;2023-11-19T07:34:40;100187.91;;;10.88;100.00
12969;BME280;6549;53.128;8.182;2023-11-19T07:37:42;100171.41;;;10.88;100.00
12969;BME280;6549;53.128;8.182;2023-11-19T07:40:42;100185.53;;;10.86;100.00
12969;BME280;6549;53.128;8.182;2023-11-19T07:43:45;100185.53;;;10.90;100.00
12969;BME280;6549;53.128;8.182;2023-11-19T07:46:47;100192.63;;;10.87;100.00
12969;BME280;6549;53.128;8.182;2023-11-19T07:49:48;100190.63;;;10.91;100.00
12969;BME280;6549;53.128;8.182;2023-11-19T07:52:48;100191.81;;;10.90;100.00
12969;BME280;6549;53.128;8.182;2023-11-19T07:55:48;100192.19;;;10.92;100.00
12969;BME280;6549;53.128;8.182;2023-11-19T07:58:48;100194.56;;;10.90;100.00
12969;BME280;6549;53.128;8.182;2023-11-19T08:01:49;100203.19;;;10.92;100.00
12969;BME280;6549;53.128;8.182;2023-11-19T08:04:50;100210.63;;;10.95;100.00
12969;BME280;6549;53.128;8.182;2023-11-19T08:07:52;100201.22;;;10.96;100.00
12969;BME280;6549;53.128;8.182;2023-11-19T08:10:53;100211.78;;;11.01;100.00
12969;BME280;6549;53.128;8.182;2023-11-19T08:13:54;100206.66;;;11.03;100.00
12969;BME280;6549;53.128;8.182;2023-11-19T08:16:54;100216.88;;;11.06;100.00
12969;BME280;6549;53.128;8.182;2023-11-19T08:19:54;100223.91;;;11.07;100.00
12969;BME280;6549;53.128;8.182;2023-11-19T08:22:55;100220.81;;;11.02;100.00
12969;BME280;6549;53.128;8.182;2023-11-19T08:25:55;100227.09;;;11.06;100.00
12969;BME280;6549;53.128;8.182;2023-11-19T08:28:55;100227.44;;;11.08;100.00
12969;BME280;6549;53.128;8.182;2023-11-19T08:32:00;100226.22;;;11.16;100.00
12969;BME280;6549;53.128;8.182;2023-11-19T08:35:00;100231.72;;;11.19;100.00
12969;BME280;6549;53.128;8.182;2023-11-19T08:38:01;100229.72;;;11.23;100.00
12969;BME280;6549;53.128;8.182;2023-11-19T08:41:01;100225.78;;;11.24;100.00
12969;BME280;6549;53.128;8.182;2023-11-19T08:44:02;100230.13;;;11.22;100.00
12969;BME280;6549;53.128;8.182;2023-11-19T08:47:02;100230.50;;;11.20;100.00
12969;BME280;6549;53.128;8.182;2023-11-19T08:50:02;100243.47;;;11.20;100.00
12969;BME280;6549;53.128;8.182;2023-11-19T08:53:04;100235.63;;;11.22;100.00
12969;BME280;6549;53.128;8.182;2023-11-19T08:56:07;100239.53;;;11.28;100.00
12969;BME280;6549;53.128;8.182;2023-11-19T08:59:07;100244.22;;;11.31;100.00
12969;BME280;6549;53.128;8.182;2023-11-19T09:02:08;100236.72;;;11.35;100.00
12969;BME280;6549;53.128;8.182;2023-11-19T09:05:09;100243.78;;;11.36;100.00
12969;BME280;6549;53.128;8.182;2023-11-19T09:08:09;100246.53;;;11.36;100.00
12969;BME280;6549;53.128;8.182;2023-11-19T09:11:11;100248.13;;;11.34;100.00
12969;BME280;6549;53.128;8.182;2023-11-19T09:14:11;100246.56;;;11.33;100.00
12969;BME280;6549;53.128;8.182;2023-11-19T09:17:12;100253.63;;;11.34;100.00
12969;BME280;6549;53.128;8.182;2023-11-19T09:20:12;100251.25;;;11.36;100.00
12969;BME280;6549;53.128;8.182;2023-11-19T09:23:15;100248.88;;;11.38;100.00
12969;BME280;6549;53.128;8.182;2023-11-19T09:26:15;100252.00;;;11.40;100.00
12969;BME280;6549;53.128;8.182;2023-11-19T09:29:15;100264.59;;;11.41;100.00
12969;BME280;6549;53.128;8.182;2023-11-19T09:32:16;100251.63;;;11.38;100.00
12969;BME280;6549;53.128;8.182;2023-11-19T09:35:16;100260.66;;;11.38;100.00
12969;BME280;6549;53.128;8.182;2023-11-19T09:38:17;100261.44;;;11.39;100.00
12969;BME280;6549;53.128;8.182;2023-11-19T09:41:17;100261.47;;;11.35;100.00
12969;BME280;6549;53.128;8.182;2023-11-19T09:44:19;100258.00;;;11.27;100.00
12969;BME280;6549;53.128;8.182;2023-11-19T09:47:20;100267.88;;;11.18;100.00
12969;BME280;6549;53.128;8.182;2023-11-19T09:50:21;100273.41;;;11.07;100.00
12969;BME280;6549;53.128;8.182;2023-11-19T09:53:21;100273.81;;;11.02;100.00
12969;BME280;6549;53.128;8.182;2023-11-19T09:56:22;100278.97;;;10.97;100.00
12969;BME280;6549;53.128;8.182;2023-11-19T09:59:23;100270.72;;;10.93;100.00
12969;BME280;6549;53.128;8.182;2023-11-19T10:02:23;100281.34;;;10.91;100.00
12969;BME280;6549;53.128;8.182;2023-11-19T10:05:24;100287.66;;;10.88;100.00
12969;BME280;6549;53.128;8.182;2023-11-19T10:08:24;100288.41;;;10.85;100.00
12969;BME280;6549;53.128;8.182;2023-11-19T10:11:25;100282.56;;;10.83;100.00
12969;BME280;6549;53.128;8.182;2023-11-19T10:14:25;100279.81;;;10.83;100.00
12969;BME280;6549;53.128;8.182;2023-11-19T10:17:32;100287.25;;;10.86;100.00
12969;BME280;6549;53.128;8.182;2023-11-19T10:20:36;100278.19;;;10.89;100.00
12969;BME280;6549;53.128;8.182;2023-11-19T10:23:51;100284.47;;;10.93;100.00
12969;BME280;6549;53.128;8.182;2023-11-19T10:26:52;100279.75;;;10.94;100.00
12969;BME280;6549;53.128;8.182;2023-11-19T10:29:52;100277.41;;;10.96;100.00
12969;BME280;6549;53.128;8.182;2023-11-19T10:33:12;100274.25;;;11.01;100.00
12969;BME280;6549;53.128;8.182;2023-11-19T10:36:19;100273.84;;;10.99;100.00
12969;BME280;6549;53.128;8.182;2023-11-19T10:39:20;100272.66;;;11.00;100.00
12969;BME280;6549;53.128;8.182;2023-11-19T10:42:21;100273.06;;;10.98;100.00
12969;BME280;6549;53.128;8.182;2023-11-19T10:45:22;100269.53;;;11.01;100.00
12969;BME280;6549;53.128;8.182;2023-11-19T10:48:25;100273.44;;;11.04;100.00
12969;BME280;6549;53.128;8.182;2023-11-19T10:51:28;100274.16;;;11.11;100.00
12969;BME280;6549;53.128;8.182;2023-11-19T10:54:30;100272.53;;;11.24;100.00
12969;BME280;6549;53.128;8.182;2023-11-19T10:57:35;100281.53;;;11.36;100.00
12969;BME280;6549;53.128;8.182;2023-11-19T11:00:39;100266.16;;;11.42;100.00
12969;BME280;6549;53.128;8.182;2023-11-19T11:03:44;100272.44;;;11.46;100.00
12969;BME280;6549;53.128;8.182;2023-11-19T11:06:46;100263.34;;;11.49;100.00
12969;BME280;6549;53.128;8.182;2023-11-19T11:09:47;100261.38;;;11.49;100.00
12969;BME280;6549;53.128;8.182;2023-11-19T11:12:49;100259.78;;;11.52;100.00
12969;BME280;6549;53.128;8.182;2023-11-19T11:15:55;100256.59;;;11.60;100.00
12969;BME280;6549;53.128;8.182;2023-11-19T11:18:58;100257.34;;;11.68;100.00
12969;BME280;6549;53.128;8.182;2023-11-19T11:21:59;100257.31;;;11.71;100.00
12969;BME280;6549;53.128;8.182;2023-11-19T11:28:43;100251.00;;;11.71;100.00
12969;BME280;6549;53.128;8.182;2023-11-19T11:31:56;100253.00;;;11.67;100.00
12969;BME280;6549;53.128;8.182;2023-11-19T11:38:22;100255.03;;;11.59;100.00
12969;BME280;6549;53.128;8.182;2023-11-19T11:41:24;100247.59;;;11.53;100.00
12969;BME280;6549;53.128;8.182;2023-11-19T11:48:15;100249.22;;;11.47;100.00
12969;BME280;6549;53.128;8.182;2023-11-19T11:51:16;100254.78;;;11.40;100.00
12969;BME280;6549;53.128;8.182;2023-11-19T11:57:20;100255.16;;;11.38;100.00
12969;BME280;6549;53.128;8.182;2023-11-19T12:00:29;100250.88;;;11.37;100.00
12969;BME280;6549;53.128;8.182;2023-11-19T12:03:31;100255.97;;;11.35;100.00
12969;BME280;6549;53.128;8.182;2023-11-19T12:06:32;100253.63;;;11.34;100.00
12969;BME280;6549;53.128;8.182;2023-11-19T12:09:33;100245.78;;;11.32;100.00
12969;BME280;6549;53.128;8.182;2023-11-19T12:12:34;100258.00;;;11.27;100.00
12969;BME280;6549;53.128;8.182;2023-11-19T12:19:02;100260.81;;;11.13;100.00
12969;BME280;6549;53.128;8.182;2023-11-19T12:22:10;100258.47;;;11.08;100.00
12969;BME280;6549;53.128;8.182;2023-11-19T12:25:12;100266.78;;;11.01;100.00
12969;BME280;6549;53.128;8.182;2023-11-19T12:28:13;100262.47;;;10.93;100.00
12969;BME280;6549;53.128;8.182;2023-11-19T12:31:14;100257.78;;;10.87;100.00
12969;BME280;6549;53.128;8.182;2023-11-19T12:34:14;100252.72;;;10.78;100.00
12969;BME280;6549;53.128;8.182;2023-11-19T12:37:15;100248.44;;;10.70;100.00
12969;BME280;6549;53.128;8.182;2023-11-19T12:40:17;100238.22;;;10.67;100.00
12969;BME280;6549;53.128;8.182;2023-11-19T12:43:23;100251.63;;;10.61;100.00
12969;BME280;6549;53.128;8.182;2023-11-19T12:46:24;100240.25;;;10.56;100.00
12969;BME280;6549;53.128;8.182;2023-11-19T12:49:24;100232.38;;;10.58;100.00
12969;BME280;6549;53.128;8.182;2023-11-19T12:52:25;100233.56;;;10.57;100.00
12969;BME280;6549;53.128;8.182;2023-11-19T12:55:27;100228.84;;;10.61;100.00
12969;BME280;6549;53.128;8.182;2023-11-19T12:58:29;100226.47;;;10.63;100.00
12969;BME280;6549;53.128;8.182;2023-11-19T13:01:29;100228.03;;;10.71;100.00
12969;BME280;6549;53.128;8.182;2023-11-19T13:04:30;100228.00;;;10.78;100.00
12969;BME280;6549;53.128;8.182;2023-11-19T13:07:31;100220.91;;;10.84;100.00
12969;BME280;6549;53.128;8.182;2023-11-19T13:10:53;100231.06;;;10.94;100.00
12969;BME280;6549;53.128;8.182;2023-11-19T13:13:58;100224.78;;;10.97;100.00
12969;BME280;6549;53.128;8.182;2023-11-19T13:17:00;100218.47;;;11.00;100.00
12969;BME280;6549;53.128;8.182;2023-11-19T13:20:00;100220.03;;;11.01;100.00
12969;BME280;6549;53.128;8.182;2023-11-19T13:23:05;100227.06;;;11.02;100.00
12969;BME280;6549;53.128;8.182;2023-11-19T13:26:06;100220.81;;;10.98;100.00
12969;BME280;6549;53.128;8.182;2023-11-19T13:29:07;100224.75;;;10.94;100.00
12969;BME280;6549;53.128;8.182;2023-11-19T13:32:08;100220.88;;;10.91;100.00
12969;BME280;6549;53.128;8.182;2023-11-19T13:35:09;100227.16;;;10.88;100.00
12969;BME280;6549;53.128;8.182;2023-11-19T13:38:09;100227.16;;;10.85;100.00
12969;BME280;6549;53.128;8.182;2023-11-19T13:41:09;100232.28;;;10.82;100.00
12969;BME280;6549;53.128;8.182;2023-11-19T13:44:11;100222.88;;;10.84;100.00
12969;BME280;6549;53.128;8.182;2023-11-19T13:47:11;100218.16;;;10.84;100.00
12969;BME280;6549;53.128;8.182;2023-11-19T13:50:15;100219.31;;;10.87;100.00
12969;BME280;6549;53.128;8.182;2023-11-19T13:53:16;100211.06;;;10.87;100.00
12969;BME280;6549;53.128;8.182;2023-11-19T13:56:16;100229.50;;;10.90;100.00
12969;BME280;6549;53.128;8.182;2023-11-19T13:59:17;100225.56;;;10.91;100.00
12969;BME280;6549;53.128;8.182;2023-11-19T14:02:17;100220.06;;;10.91;100.00
12969;BME280;6549;53.128;8.182;2023-11-19T14:05:17;100223.97;;;10.93;100.00
12969;BME280;6549;53.128;8.182;2023-11-19T14:08:18;100218.47;;;10.93;100.00
12969;BME280;6549;53.128;8.182;2023-11-19T14:11:18;100215.38;;;10.91;100.00
12969;BME280;6549;53.128;8.182;2023-11-19T14:14:18;100220.06;;;10.91;100.00
12969;BME280;6549;53.128;8.182;2023-11-19T14:17:19;100219.31;;;10.87;100.00
12969;BME280;6549;53.128;8.182;2023-11-19T14:20:19;100210.69;;;10.88;100.00
12969;BME280;6549;53.128;8.182;2023-11-19T14:23:20;100209.09;;;10.87;100.00
12969;BME280;6549;53.128;8.182;2023-11-19T14:26:20;100218.16;;;10.84;100.00
12969;BME280;6549;53.128;8.182;2023-11-19T14:29:21;100220.13;;;10.84;100.00
12969;BME280;6549;53.128;8.182;2023-11-19T14:32:21;100224.84;;;10.83;100.00
12969;BME280;6549;53.128;8.182;2023-11-19T14:35:21;100224.06;;;10.82;100.00
12969;BME280;6549;53.128;8.182;2023-11-19T14:38:22;100227.19;;;10.81;100.00
12969;BME280;6549;53.128;8.182;2023-11-19T14:41:23;100219.75;;;10.78;100.00
12969;BME280;6549;53.128;8.182;2023-11-19T14:44:23;100219.75;;;10.78;100.00
12969;BME280;6549;53.128;8.182;2023-11-19T14:47:24;100230.75;;;10.78;100.00
12969;BME280;6549;53.128;8.182;2023-11-19T14:50:24;100219.75;;;10.78;100.00
12969;BME280;6549;53.128;8.182;2023-11-19T14:53:25;100226.41;;;10.80;100.00
12969;BME280;6549;53.128;8.182;2023-11-19T14:56:25;100222.09;;;10.79;100.00
12969;BME280;6549;53.128;8.182;2023-11-19T14:59:25;100225.63;;;10.80;100.00
12969;BME280;6549;53.128;8.182;2023-11-19T15:02:26;100230.34;;;10.79;100.00
12969;BME280;6549;53.128;8.182;2023-11-19T15:05:26;100217.41;;;10.76;100.00
12969;BME280;6549;53.128;8.182;2023-11-19T15:08:28;100226.41;;;10.77;100.00
12969;BME280;6549;53.128;8.182;2023-11-19T15:11:28;100224.84;;;10.76;100.00
12969;BME280;6549;53.128;8.182;2023-11-19T15:14:29;100222.53;;;10.74;100.00
12969;BME280;6549;53.128;8.182;2023-11-19T15:17:30;100224.09;;;10.72;100.00
12969;BME280;6549;53.128;8.182;2023-11-19T15:20:31;100224.09;;;10.72;100.00
12969;BME280;6549;53.128;8.182;2023-11-19T15:23:31;100221.34;;;10.72;100.00
12969;BME280;6549;53.128;8.182;2023-11-19T15:26:31;100228.78;;;10.71;100.00
12969;BME280;6549;53.128;8.182;2023-11-19T15:29:32;100223.72;;;10.70;100.00
12969;BME280;6549;53.128;8.182;2023-11-19T15:32:34;100225.69;;;10.69;100.00
12969;BME280;6549;53.128;8.182;2023-11-19T15:35:35;100237.88;;;10.65;100.00
12969;BME280;6549;53.128;8.182;2023-11-19T15:38:36;100229.63;;;10.61;100.00
12969;BME280;6549;53.128;8.182;2023-11-19T15:41:36;100232.78;;;10.60;100.00
12969;BME280;6549;53.128;8.182;2023-11-19T15:44:37;100239.84;;;10.61;100.00
12969;BME280;6549;53.128;8.182;2023-11-19T15:47:38;100242.19;;;10.59;100.00
12969;BME280;6549;53.128;8.182;2023-11-19T15:50:41;100236.69;;;10.59;100.00
12969;BME280;6549;53.128;8.182;2023-11-19T15:53:44;100235.53;;;10.60;100.00
12969;BME280;6549;53.128;8.182;2023-11-19T15:56:46;100239.44;;;10.59;100.00
12969;BME280;6549;53.128;8.182;2023-11-19T15:59:47;100235.13;;;10.58;100.00
12969;BME280;6549;53.128;8.182;2023-11-19T16:02:49;100237.13;;;10.57;100.00
12969;BME280;6549;53.128;8.182;2023-11-19T16:05:50;100233.19;;;10.55;100.00
12969;BME280;6549;53.128;8.182;2023-11-19T16:08:50;100245.34;;;10.54;100.00